createdAt,value
2019-03-30T00:01:07.065Z,11.40
2019-03-30T00:06:11.803Z,11.50
2019-03-30T00:11:16.568Z,11.60
2019-03-30T00:16:21.376Z,11.60
2019-03-30T00:21:26.122Z,11.40
2019-03-30T00:26:30.867Z,11.30
2019-03-30T00:31:35.706Z,11.30
2019-03-30T00:36:40.447Z,11.40
2019-03-30T00:41:45.318Z,11.40
2019-03-30T00:46:50.129Z,11.10
2019-03-30T00:51:54.878Z,11.10
2019-03-30T00:56:59.619Z,10.90
2019-03-30T01:02:04.376Z,11.00
2019-03-30T01:07:09.122Z,11.00
2019-03-30T01:12:13.882Z,10.90
2019-03-30T01:17:18.626Z,10.90
2019-03-30T01:22:23.332Z,10.70
2019-03-30T01:27:28.098Z,10.60
2019-03-30T01:32:34.996Z,10.50
2019-03-30T01:37:39.404Z,10.30
2019-03-30T01:42:44.254Z,10.30
2019-03-30T01:47:49.185Z,10.30
2019-03-30T01:52:54.017Z,10.40
2019-03-30T01:57:58.935Z,10.30
2019-03-30T02:03:03.695Z,10.10
2019-03-30T02:08:08.476Z,10.10
2019-03-30T02:13:13.528Z,10.20
2019-03-30T02:18:18.363Z,10.20
2019-03-30T02:23:23.156Z,10.10
2019-03-30T02:28:27.910Z,10.10
2019-03-30T02:33:32.655Z,10.20
2019-03-30T02:38:37.411Z,10.00
2019-03-30T02:43:42.206Z,10.10
2019-03-30T06:31:47.196Z,10.40
2019-03-30T06:36:52.460Z,10.40
2019-03-30T06:41:57.221Z,11.10
2019-03-30T06:47:02.417Z,11.90
2019-03-30T06:52:07.306Z,12.50
2019-03-30T06:57:12.385Z,12.60
2019-03-30T07:02:20.011Z,12.60
2019-03-30T07:07:27.131Z,13.20
2019-03-30T07:12:35.780Z,13.50
2019-03-30T07:17:48.403Z,14.20
2019-03-30T07:22:53.247Z,14.90
2019-03-30T07:27:58.205Z,15.70
2019-03-30T07:33:03.220Z,17.00
2019-03-30T07:38:08.069Z,20.00
2019-03-30T07:46:46.587Z,20.80
2019-03-30T07:51:51.331Z,22.60
2019-03-30T07:57:05.331Z,23.50
2019-03-30T08:02:04.225Z,23.00
2019-03-30T08:07:10.867Z,23.90
2019-03-30T08:22:58.988Z,24.80
2019-03-30T08:28:03.793Z,24.00
2019-03-30T08:33:09.758Z,23.50
2019-03-30T08:38:14.515Z,24.30
2019-03-30T08:43:19.364Z,26.10
2019-03-30T08:48:24.210Z,25.10
2019-03-30T08:58:33.148Z,25.50
2019-03-30T09:03:38.002Z,25.70
2019-03-30T09:08:43.150Z,24.40
2019-03-30T09:13:49.308Z,26.30
2019-03-30T09:18:54.094Z,26.80
2019-03-30T09:24:09.486Z,27.90
2019-03-30T09:29:05.402Z,26.50
2019-03-30T09:34:10.272Z,28.10
2019-03-30T09:44:19.740Z,29.80
2019-03-30T09:49:24.580Z,29.00
2019-03-30T09:54:29.347Z,29.00
2019-03-30T09:59:34.086Z,28.10
2019-03-30T10:04:38.862Z,26.70
2019-03-30T10:09:43.641Z,26.80
2019-03-30T10:14:48.422Z,27.70
2019-03-30T10:20:04.044Z,26.10
2019-03-30T10:24:59.721Z,26.80
2019-03-30T10:30:11.721Z,28.30
2019-03-30T10:35:16.552Z,27.70
2019-03-30T10:45:26.038Z,27.00
2019-03-30T10:50:30.801Z,26.80
2019-03-30T10:55:35.963Z,26.80
2019-03-30T11:00:41.636Z,26.00
2019-03-30T11:05:46.384Z,26.00
2019-03-30T11:10:52.209Z,25.50
2019-03-30T11:15:56.959Z,26.90
2019-03-30T11:21:01.756Z,27.00
2019-03-30T11:26:08.452Z,27.40
2019-03-30T11:31:13.270Z,27.00
2019-03-30T11:36:18.698Z,27.20
2019-03-30T11:41:25.034Z,26.90
2019-03-30T11:46:30.007Z,26.40
2019-03-30T11:51:34.910Z,26.90
2019-03-30T11:56:39.696Z,26.40
2019-03-30T12:01:44.888Z,27.00
2019-03-30T12:06:56.322Z,26.20
2019-03-30T12:12:01.134Z,26.60
2019-03-30T12:17:05.947Z,27.50
2019-03-30T12:22:10.697Z,28.50
2019-03-30T12:27:15.521Z,28.00
2019-03-30T12:32:20.343Z,28.50
2019-03-30T12:37:25.163Z,28.70
2019-03-30T12:42:29.915Z,28.80
2019-03-30T12:47:34.681Z,27.80
2019-03-30T12:52:39.444Z,27.90
2019-03-30T12:57:44.195Z,27.70
2019-03-30T13:02:48.998Z,26.60
2019-03-30T13:07:53.756Z,26.20
2019-03-30T13:12:58.580Z,27.50
2019-03-30T13:18:03.508Z,27.00
2019-03-30T13:23:08.253Z,26.80
2019-03-30T13:28:13.076Z,25.80
2019-03-30T13:33:17.910Z,25.30
2019-03-30T13:38:25.757Z,25.40
2019-03-30T13:43:29.236Z,24.30
2019-03-30T13:48:34.084Z,23.40
2019-03-30T13:53:38.936Z,23.20
2019-03-30T13:58:43.844Z,25.30
2019-03-30T14:03:48.594Z,24.60
2019-03-30T14:08:53.416Z,24.40
2019-03-30T14:13:58.370Z,24.20
2019-03-30T14:19:03.289Z,24.30
2019-03-30T14:24:08.145Z,24.60
2019-03-30T14:29:13.068Z,25.40
2019-03-30T14:34:17.947Z,25.40
2019-03-30T14:39:22.663Z,25.60
2019-03-30T14:44:27.466Z,28.60
2019-03-30T14:49:32.759Z,28.70
2019-03-30T14:54:51.743Z,26.70
2019-03-30T15:04:48.589Z,23.80
2019-03-30T15:09:53.432Z,22.90
2019-03-30T15:14:58.577Z,22.20
2019-03-30T15:20:03.407Z,22.10
2019-03-30T15:25:10.111Z,21.80
2019-03-30T15:30:15.236Z,22.90
2019-03-30T15:35:20.082Z,26.90
2019-03-30T15:40:25.042Z,30.00
2019-03-30T15:45:29.871Z,29.90
2019-03-30T15:53:59.167Z,26.30
2019-03-30T15:59:04.098Z,26.20
2019-03-30T16:04:08.940Z,25.60
2019-03-30T16:09:13.759Z,23.80
2019-03-30T16:14:18.538Z,22.90
2019-03-30T16:19:23.272Z,21.50
2019-03-30T16:29:33.646Z,20.60
2019-03-30T16:34:38.423Z,20.30
2019-03-30T16:39:44.787Z,20.30
2019-03-30T16:44:50.714Z,20.20
2019-03-30T16:49:56.089Z,20.00
2019-03-30T16:55:01.246Z,19.90
2019-03-30T17:00:07.786Z,19.70
2019-03-30T17:05:12.905Z,19.60
2019-03-30T17:10:17.873Z,19.20
2019-03-30T17:15:23.776Z,19.00
2019-03-30T17:20:28.552Z,18.90
2019-03-30T17:25:33.607Z,18.80
2019-03-30T17:30:38.483Z,18.50
2019-03-30T17:35:43.282Z,18.40
2019-03-30T17:40:48.122Z,18.30
2019-03-30T17:45:53.236Z,18.30
2019-03-30T17:50:58.680Z,18.10
2019-03-30T17:56:03.877Z,18.10
2019-03-30T18:06:12.828Z,17.80
2019-03-30T18:11:17.567Z,17.70
2019-03-30T18:16:23.828Z,17.60
2019-03-30T18:21:28.613Z,17.50
2019-03-30T18:26:33.466Z,17.40
2019-03-30T18:31:39.481Z,17.30
2019-03-30T18:36:45.099Z,17.10
2019-03-30T18:41:49.994Z,17.10
2019-03-30T18:46:54.905Z,16.90
2019-03-30T18:52:00.965Z,16.80
2019-03-30T18:57:05.883Z,16.70
2019-03-30T19:02:10.661Z,16.60
2019-03-30T19:07:15.553Z,16.40
2019-03-30T19:12:20.379Z,16.30
2019-03-30T19:17:25.184Z,16.10
2019-03-30T19:22:30.012Z,16.10
2019-03-30T19:27:34.781Z,16.00
2019-03-30T19:32:39.987Z,15.90
2019-03-30T19:37:44.849Z,15.70
2019-03-30T19:42:50.015Z,15.60
2019-03-30T19:47:54.862Z,15.70
2019-03-30T19:52:59.663Z,15.60
2019-03-30T19:58:04.605Z,15.50
2019-03-30T20:03:09.381Z,15.40
2019-03-30T20:08:15.170Z,15.30
2019-03-30T20:13:20.229Z,15.30
2019-03-30T20:20:10.255Z,15.30
2019-03-30T20:25:15.053Z,15.20
2019-03-30T20:30:20.092Z,15.10
2019-03-30T20:35:24.854Z,15.00
2019-03-30T20:40:29.652Z,14.80
2019-03-30T20:45:34.394Z,14.60
2019-03-30T20:50:39.266Z,14.60
2019-03-30T20:55:44.037Z,14.90
2019-03-30T21:00:48.830Z,14.90
2019-03-30T21:36:35.835Z,12.50
2019-03-30T21:41:40.600Z,12.80
2019-03-30T21:46:45.379Z,13.40
2019-03-30T21:51:50.188Z,13.60
2019-03-30T21:56:54.948Z,13.80
2019-03-30T22:01:59.715Z,13.80
2019-03-30T22:07:04.457Z,13.70
2019-03-30T22:12:09.279Z,13.50
2019-03-30T22:17:14.100Z,13.50
2019-03-30T22:22:18.851Z,13.50
2019-03-30T22:27:23.622Z,13.40
2019-03-30T22:32:28.380Z,13.40
2019-03-30T22:37:33.223Z,13.40
2019-03-30T22:42:38.089Z,13.30
2019-03-30T22:47:42.895Z,13.20
2019-03-30T22:52:47.649Z,13.20
2019-03-30T22:57:52.470Z,13.20
2019-03-30T23:02:57.270Z,13.10
2019-03-30T23:08:02.018Z,12.90
2019-03-30T23:13:06.764Z,12.80
2019-03-30T23:18:11.623Z,12.80
2019-03-30T23:23:16.352Z,12.80
2019-03-30T23:28:21.104Z,12.80
2019-03-30T23:33:25.898Z,12.70
2019-03-30T23:38:30.682Z,12.60
2019-03-30T23:43:35.550Z,12.60
2019-03-30T23:48:40.306Z,12.60
2019-03-30T23:53:45.104Z,12.50
2019-03-30T23:58:49.852Z,12.40
